sensor_id;sensor_type;location;lat;lon;timestamp;temperature;humidity
53282;DHT22;39167;52.794;6.892;2022-08-05T00:01:01;18.80;99.90
53282;DHT22;39167;52.794;6.892;2022-08-05T00:03:27;18.70;99.90
53282;DHT22;39167;52.794;6.892;2022-08-05T00:05:53;18.70;99.90
53282;DHT22;39167;52.794;6.892;2022-08-05T00:08:19;18.60;99.90
53282;DHT22;39167;52.794;6.892;2022-08-05T00:10:45;18.70;99.90
53282;DHT22;39167;52.794;6.892;2022-08-05T00:13:10;18.70;99.90
53282;DHT22;39167;52.794;6.892;2022-08-05T00:15:36;18.70;99.90
53282;DHT22;39167;52.794;6.892;2022-08-05T00:18:02;18.60;99.90
53282;DHT22;39167;52.794;6.892;2022-08-05T00:20:28;18.60;99.90
53282;DHT22;39167;52.794;6.892;2022-08-05T00:22:53;18.60;99.90
53282;DHT22;39167;52.794;6.892;2022-08-05T00:25:19;18.60;99.90
53282;DHT22;39167;52.794;6.892;2022-08-05T00:27:45;18.60;99.90
53282;DHT22;39167;52.794;6.892;2022-08-05T00:30:11;18.50;99.90
53282;DHT22;39167;52.794;6.892;2022-08-05T00:32:36;18.50;99.90
53282;DHT22;39167;52.794;6.892;2022-08-05T00:35:02;18.50;99.90
53282;DHT22;39167;52.794;6.892;2022-08-05T00:37:28;18.50;99.90
53282;DHT22;39167;52.794;6.892;2022-08-05T00:39:54;18.50;99.90
53282;DHT22;39167;52.794;6.892;2022-08-05T00:42:30;18.50;99.90
53282;DHT22;39167;52.794;6.892;2022-08-05T00:44:56;18.50;99.90
53282;DHT22;39167;52.794;6.892;2022-08-05T00:47:22;18.40;99.90
53282;DHT22;39167;52.794;6.892;2022-08-05T00:49:48;18.40;99.90
53282;DHT22;39167;52.794;6.892;2022-08-05T00:52:13;18.40;99.90
53282;DHT22;39167;52.794;6.892;2022-08-05T00:54:39;18.40;99.90
53282;DHT22;39167;52.794;6.892;2022-08-05T00:57:05;18.40;99.90
53282;DHT22;39167;52.794;6.892;2022-08-05T00:59:30;18.40;99.90
53282;DHT22;39167;52.794;6.892;2022-08-05T01:01:56;18.40;99.90
53282;DHT22;39167;52.794;6.892;2022-08-05T01:04:22;18.40;99.90
53282;DHT22;39167;52.794;6.892;2022-08-05T01:06:47;18.40;99.90
53282;DHT22;39167;52.794;6.892;2022-08-05T01:09:13;18.40;99.90
53282;DHT22;39167;52.794;6.892;2022-08-05T01:11:39;18.40;99.90
53282;DHT22;39167;52.794;6.892;2022-08-05T01:14:26;18.40;99.90
53282;DHT22;39167;52.794;6.892;2022-08-05T01:17:02;18.40;99.90
53282;DHT22;39167;52.794;6.892;2022-08-05T01:19:52;18.40;99.90
53282;DHT22;39167;52.794;6.892;2022-08-05T01:22:44;18.30;99.90
53282;DHT22;39167;52.794;6.892;2022-08-05T01:28:13;18.40;99.90
53282;DHT22;39167;52.794;6.892;2022-08-05T01:30:45;18.40;99.90
53282;DHT22;39167;52.794;6.892;2022-08-05T01:33:14;18.40;99.90
53282;DHT22;39167;52.794;6.892;2022-08-05T01:35:41;18.40;99.90
53282;DHT22;39167;52.794;6.892;2022-08-05T01:38:11;18.40;99.90
53282;DHT22;39167;52.794;6.892;2022-08-05T01:40:37;18.40;99.90
53282;DHT22;39167;52.794;6.892;2022-08-05T01:43:04;18.40;99.90
53282;DHT22;39167;52.794;6.892;2022-08-05T01:45:32;18.40;99.90
53282;DHT22;39167;52.794;6.892;2022-08-05T01:48:00;18.40;99.90
53282;DHT22;39167;52.794;6.892;2022-08-05T01:50:29;18.40;99.90
53282;DHT22;39167;52.794;6.892;2022-08-05T01:52:59;18.40;99.90
53282;DHT22;39167;52.794;6.892;2022-08-05T01:55:28;18.40;99.90
53282;DHT22;39167;52.794;6.892;2022-08-05T01:57:56;18.30;99.90
53282;DHT22;39167;52.794;6.892;2022-08-05T02:00:23;18.30;99.90
53282;DHT22;39167;52.794;6.892;2022-08-05T02:02:56;18.30;99.90
53282;DHT22;39167;52.794;6.892;2022-08-05T02:05:31;18.30;99.90
53282;DHT22;39167;52.794;6.892;2022-08-05T02:07:58;18.30;99.90
53282;DHT22;39167;52.794;6.892;2022-08-05T02:10:26;18.30;99.90
53282;DHT22;39167;52.794;6.892;2022-08-05T02:13:02;18.20;99.90
53282;DHT22;39167;52.794;6.892;2022-08-05T02:15:37;18.20;99.90
53282;DHT22;39167;52.794;6.892;2022-08-05T02:18:25;18.20;99.90
53282;DHT22;39167;52.794;6.892;2022-08-05T02:20:56;18.20;99.90
53282;DHT22;39167;52.794;6.892;2022-08-05T02:23:28;18.20;99.90
53282;DHT22;39167;52.794;6.892;2022-08-05T02:25:56;18.10;99.90
53282;DHT22;39167;52.794;6.892;2022-08-05T02:28:28;18.10;99.90
53282;DHT22;39167;52.794;6.892;2022-08-05T02:31:05;18.20;99.90
53282;DHT22;39167;52.794;6.892;2022-08-05T02:33:35;18.10;99.90
53282;DHT22;39167;52.794;6.892;2022-08-05T02:36:02;18.20;99.90
53282;DHT22;39167;52.794;6.892;2022-08-05T02:38:29;18.10;99.90
53282;DHT22;39167;52.794;6.892;2022-08-05T02:40:57;18.10;99.90
53282;DHT22;39167;52.794;6.892;2022-08-05T02:43:23;18.10;99.90
53282;DHT22;39167;52.794;6.892;2022-08-05T02:45:50;18.10;99.90
53282;DHT22;39167;52.794;6.892;2022-08-05T02:48:17;18.10;99.90
53282;DHT22;39167;52.794;6.892;2022-08-05T02:50:43;18.10;99.90
53282;DHT22;39167;52.794;6.892;2022-08-05T02:53:13;18.20;99.90
53282;DHT22;39167;52.794;6.892;2022-08-05T02:55:39;18.10;99.90
53282;DHT22;39167;52.794;6.892;2022-08-05T02:58:05;18.10;99.90
53282;DHT22;39167;52.794;6.892;2022-08-05T03:00:32;18.10;99.90
53282;DHT22;39167;52.794;6.892;2022-08-05T03:03:00;18.10;99.90
53282;DHT22;39167;52.794;6.892;2022-08-05T03:05:26;18.10;99.90
53282;DHT22;39167;52.794;6.892;2022-08-05T03:07:53;18.10;99.90
53282;DHT22;39167;52.794;6.892;2022-08-05T03:10:19;18.10;99.90
53282;DHT22;39167;52.794;6.892;2022-08-05T03:12:45;18.00;99.90
53282;DHT22;39167;52.794;6.892;2022-08-05T03:15:11;18.00;99.90
53282;DHT22;39167;52.794;6.892;2022-08-05T03:17:37;18.00;99.90
53282;DHT22;39167;52.794;6.892;2022-08-05T03:20:04;18.10;99.90
53282;DHT22;39167;52.794;6.892;2022-08-05T03:22:30;18.00;99.90
53282;DHT22;39167;52.794;6.892;2022-08-05T03:24:56;18.00;99.90
53282;DHT22;39167;52.794;6.892;2022-08-05T03:27:22;18.00;99.90
53282;DHT22;39167;52.794;6.892;2022-08-05T03:29:48;18.00;99.90
53282;DHT22;39167;52.794;6.892;2022-08-05T03:32:15;18.00;99.90
53282;DHT22;39167;52.794;6.892;2022-08-05T03:34:41;17.90;99.90
53282;DHT22;39167;52.794;6.892;2022-08-05T03:37:07;18.00;99.90
53282;DHT22;39167;52.794;6.892;2022-08-05T03:39:33;17.90;99.90
53282;DHT22;39167;52.794;6.892;2022-08-05T03:41:58;18.00;99.90
53282;DHT22;39167;52.794;6.892;2022-08-05T03:44:24;18.00;99.90
53282;DHT22;39167;52.794;6.892;2022-08-05T03:46:50;18.00;99.90
53282;DHT22;39167;52.794;6.892;2022-08-05T03:49:16;18.00;99.90
53282;DHT22;39167;52.794;6.892;2022-08-05T03:51:49;18.10;99.90
53282;DHT22;39167;52.794;6.892;2022-08-05T03:54:34;18.00;99.90
53282;DHT22;39167;52.794;6.892;2022-08-05T03:57:02;18.00;99.90
53282;DHT22;39167;52.794;6.892;2022-08-05T03:59:36;18.00;99.90
53282;DHT22;39167;52.794;6.892;2022-08-05T04:02:04;18.00;99.90
53282;DHT22;39167;52.794;6.892;2022-08-05T04:04:32;17.90;99.90
53282;DHT22;39167;52.794;6.892;2022-08-05T04:06:59;17.90;99.90
53282;DHT22;39167;52.794;6.892;2022-08-05T04:09:25;17.90;99.90
53282;DHT22;39167;52.794;6.892;2022-08-05T04:11:51;17.90;99.90
53282;DHT22;39167;52.794;6.892;2022-08-05T04:14:18;17.90;99.90
53282;DHT22;39167;52.794;6.892;2022-08-05T04:16:44;17.90;99.90
53282;DHT22;39167;52.794;6.892;2022-08-05T04:19:13;17.90;99.90
53282;DHT22;39167;52.794;6.892;2022-08-05T04:21:39;17.80;99.90
53282;DHT22;39167;52.794;6.892;2022-08-05T04:24:05;17.90;99.90
53282;DHT22;39167;52.794;6.892;2022-08-05T04:26:32;17.90;99.90
53282;DHT22;39167;52.794;6.892;2022-08-05T04:28:58;17.90;99.90
53282;DHT22;39167;52.794;6.892;2022-08-05T04:31:24;17.90;99.90
53282;DHT22;39167;52.794;6.892;2022-08-05T04:33:49;17.90;99.90
53282;DHT22;39167;52.794;6.892;2022-08-05T04:36:15;18.00;99.90
53282;DHT22;39167;52.794;6.892;2022-08-05T04:38:44;18.00;99.90
53282;DHT22;39167;52.794;6.892;2022-08-05T04:41:10;18.00;99.90
53282;DHT22;39167;52.794;6.892;2022-08-05T04:43:37;18.00;99.90
53282;DHT22;39167;52.794;6.892;2022-08-05T04:46:03;18.00;99.90
53282;DHT22;39167;52.794;6.892;2022-08-05T04:48:34;17.90;99.90
53282;DHT22;39167;52.794;6.892;2022-08-05T04:51:00;17.90;99.90
53282;DHT22;39167;52.794;6.892;2022-08-05T04:53:26;17.90;99.90
53282;DHT22;39167;52.794;6.892;2022-08-05T04:55:52;17.90;99.90
53282;DHT22;39167;52.794;6.892;2022-08-05T04:58:18;18.00;99.90
53282;DHT22;39167;52.794;6.892;2022-08-05T05:00:43;18.00;99.90
53282;DHT22;39167;52.794;6.892;2022-08-05T05:03:11;18.00;99.90
53282;DHT22;39167;52.794;6.892;2022-08-05T05:05:37;18.00;99.90
53282;DHT22;39167;52.794;6.892;2022-08-05T05:08:09;18.00;99.90
53282;DHT22;39167;52.794;6.892;2022-08-05T05:10:40;18.00;99.90
53282;DHT22;39167;52.794;6.892;2022-08-05T05:13:12;18.00;99.90
53282;DHT22;39167;52.794;6.892;2022-08-05T05:15:39;18.00;99.90
53282;DHT22;39167;52.794;6.892;2022-08-05T05:18:05;18.00;99.90
53282;DHT22;39167;52.794;6.892;2022-08-05T05:20:32;18.00;99.90
53282;DHT22;39167;52.794;6.892;2022-08-05T05:22:59;18.00;99.90
53282;DHT22;39167;52.794;6.892;2022-08-05T05:25:26;18.00;99.90
53282;DHT22;39167;52.794;6.892;2022-08-05T05:27:52;18.00;99.90
53282;DHT22;39167;52.794;6.892;2022-08-05T05:30:19;18.00;99.90
53282;DHT22;39167;52.794;6.892;2022-08-05T05:32:44;18.00;99.90
53282;DHT22;39167;52.794;6.892;2022-08-05T05:35:10;18.00;99.90
53282;DHT22;39167;52.794;6.892;2022-08-05T05:37:50;18.00;99.90
53282;DHT22;39167;52.794;6.892;2022-08-05T05:40:17;18.00;99.90
53282;DHT22;39167;52.794;6.892;2022-08-05T05:42:43;18.10;99.90
53282;DHT22;39167;52.794;6.892;2022-08-05T05:45:08;18.10;99.90
53282;DHT22;39167;52.794;6.892;2022-08-05T05:47:35;18.10;99.90
53282;DHT22;39167;52.794;6.892;2022-08-05T05:50:01;18.10;99.90
53282;DHT22;39167;52.794;6.892;2022-08-05T05:52:26;18.10;99.90
53282;DHT22;39167;52.794;6.892;2022-08-05T05:54:52;18.10;99.90
53282;DHT22;39167;52.794;6.892;2022-08-05T05:57:18;18.10;99.90
53282;DHT22;39167;52.794;6.892;2022-08-05T05:59:45;18.10;99.90
53282;DHT22;39167;52.794;6.892;2022-08-05T06:02:10;18.10;99.90
53282;DHT22;39167;52.794;6.892;2022-08-05T06:04:36;18.00;99.90
53282;DHT22;39167;52.794;6.892;2022-08-05T06:07:02;18.00;99.90
53282;DHT22;39167;52.794;6.892;2022-08-05T06:09:27;18.00;99.90
53282;DHT22;39167;52.794;6.892;2022-08-05T06:11:54;18.10;99.90
53282;DHT22;39167;52.794;6.892;2022-08-05T06:14:20;18.10;99.90
53282;DHT22;39167;52.794;6.892;2022-08-05T06:16:45;18.10;99.90
53282;DHT22;39167;52.794;6.892;2022-08-05T06:19:11;18.10;99.90
53282;DHT22;39167;52.794;6.892;2022-08-05T06:21:37;18.10;99.90
53282;DHT22;39167;52.794;6.892;2022-08-05T06:24:05;18.10;99.90
53282;DHT22;39167;52.794;6.892;2022-08-05T06:26:31;18.10;99.90
53282;DHT22;39167;52.794;6.892;2022-08-05T06:28:57;18.10;99.90
53282;DHT22;39167;52.794;6.892;2022-08-05T06:31:23;18.10;99.90
53282;DHT22;39167;52.794;6.892;2022-08-05T06:33:49;18.10;99.90
53282;DHT22;39167;52.794;6.892;2022-08-05T06:36:14;18.10;99.90
53282;DHT22;39167;52.794;6.892;2022-08-05T06:38:40;18.10;99.90
53282;DHT22;39167;52.794;6.892;2022-08-05T06:41:06;18.10;99.90
53282;DHT22;39167;52.794;6.892;2022-08-05T06:43:32;18.20;99.90
53282;DHT22;39167;52.794;6.892;2022-08-05T06:45:58;18.20;99.90
53282;DHT22;39167;52.794;6.892;2022-08-05T06:48:23;18.20;99.90
53282;DHT22;39167;52.794;6.892;2022-08-05T06:50:49;18.20;99.90
53282;DHT22;39167;52.794;6.892;2022-08-05T06:53:15;18.30;99.90
53282;DHT22;39167;52.794;6.892;2022-08-05T06:55:41;18.30;99.90
53282;DHT22;39167;52.794;6.892;2022-08-05T06:58:06;18.30;99.90
53282;DHT22;39167;52.794;6.892;2022-08-05T07:00:32;18.40;99.90
53282;DHT22;39167;52.794;6.892;2022-08-05T07:02:58;18.40;99.90
53282;DHT22;39167;52.794;6.892;2022-08-05T07:05:24;18.40;99.90
53282;DHT22;39167;52.794;6.892;2022-08-05T07:07:50;18.40;99.90
53282;DHT22;39167;52.794;6.892;2022-08-05T07:10:16;18.40;99.90
53282;DHT22;39167;52.794;6.892;2022-08-05T07:12:42;18.40;99.90
53282;DHT22;39167;52.794;6.892;2022-08-05T07:15:26;18.40;99.90
53282;DHT22;39167;52.794;6.892;2022-08-05T07:18:10;18.40;99.90
53282;DHT22;39167;52.794;6.892;2022-08-05T07:20:36;18.40;99.90
53282;DHT22;39167;52.794;6.892;2022-08-05T07:23:01;18.40;99.90
53282;DHT22;39167;52.794;6.892;2022-08-05T07:25:27;18.40;99.90
53282;DHT22;39167;52.794;6.892;2022-08-05T07:27:54;18.40;99.90
53282;DHT22;39167;52.794;6.892;2022-08-05T07:30:20;18.40;99.90
53282;DHT22;39167;52.794;6.892;2022-08-05T07:32:46;18.50;99.90
53282;DHT22;39167;52.794;6.892;2022-08-05T07:35:12;18.50;99.90
53282;DHT22;39167;52.794;6.892;2022-08-05T07:37:41;18.60;99.90
53282;DHT22;39167;52.794;6.892;2022-08-05T07:40:08;18.50;99.90
53282;DHT22;39167;52.794;6.892;2022-08-05T07:42:34;18.60;99.90
53282;DHT22;39167;52.794;6.892;2022-08-05T07:45:00;18.60;99.90
53282;DHT22;39167;52.794;6.892;2022-08-05T07:47:25;18.60;99.90
53282;DHT22;39167;52.794;6.892;2022-08-05T07:49:51;18.70;99.90
53282;DHT22;39167;52.794;6.892;2022-08-05T07:52:18;18.70;99.90
53282;DHT22;39167;52.794;6.892;2022-08-05T07:54:43;18.70;99.90
53282;DHT22;39167;52.794;6.892;2022-08-05T07:57:09;18.80;99.90
53282;DHT22;39167;52.794;6.892;2022-08-05T07:59:35;18.90;99.90
53282;DHT22;39167;52.794;6.892;2022-08-05T08:02:01;18.90;99.90
53282;DHT22;39167;52.794;6.892;2022-08-05T08:04:27;18.90;99.90
53282;DHT22;39167;52.794;6.892;2022-08-05T08:06:53;19.00;99.90
53282;DHT22;39167;52.794;6.892;2022-08-05T08:09:20;19.00;99.90
53282;DHT22;39167;52.794;6.892;2022-08-05T08:11:46;19.10;99.90
53282;DHT22;39167;52.794;6.892;2022-08-05T08:14:11;19.10;99.90
53282;DHT22;39167;52.794;6.892;2022-08-05T08:16:38;19.10;99.90
53282;DHT22;39167;52.794;6.892;2022-08-05T08:19:04;19.10;99.90
53282;DHT22;39167;52.794;6.892;2022-08-05T08:21:30;19.10;99.90
53282;DHT22;39167;52.794;6.892;2022-08-05T08:23:55;19.10;99.90
53282;DHT22;39167;52.794;6.892;2022-08-05T08:26:21;19.10;99.90
53282;DHT22;39167;52.794;6.892;2022-08-05T08:28:47;19.10;99.90
53282;DHT22;39167;52.794;6.892;2022-08-05T08:31:12;19.20;99.90
53282;DHT22;39167;52.794;6.892;2022-08-05T08:33:38;19.10;99.90
53282;DHT22;39167;52.794;6.892;2022-08-05T08:36:07;19.20;99.90
53282;DHT22;39167;52.794;6.892;2022-08-05T08:38:33;19.20;99.90
53282;DHT22;39167;52.794;6.892;2022-08-05T08:41:00;19.30;99.90
53282;DHT22;39167;52.794;6.892;2022-08-05T08:43:30;19.40;99.90
53282;DHT22;39167;52.794;6.892;2022-08-05T08:45:58;19.40;99.90
53282;DHT22;39167;52.794;6.892;2022-08-05T08:48:24;19.50;99.90
53282;DHT22;39167;52.794;6.892;2022-08-05T08:50:51;19.40;99.90
53282;DHT22;39167;52.794;6.892;2022-08-05T08:53:17;19.50;99.90
53282;DHT22;39167;52.794;6.892;2022-08-05T08:55:44;19.50;99.90
53282;DHT22;39167;52.794;6.892;2022-08-05T08:58:14;19.50;99.90
53282;DHT22;39167;52.794;6.892;2022-08-05T09:00:40;19.60;99.90
53282;DHT22;39167;52.794;6.892;2022-08-05T09:03:09;19.70;99.90
53282;DHT22;39167;52.794;6.892;2022-08-05T09:05:38;19.70;99.90
53282;DHT22;39167;52.794;6.892;2022-08-05T09:08:04;19.70;99.90
53282;DHT22;39167;52.794;6.892;2022-08-05T09:10:30;19.70;99.90
53282;DHT22;39167;52.794;6.892;2022-08-05T09:12:56;19.70;99.90
53282;DHT22;39167;52.794;6.892;2022-08-05T09:15:22;19.80;99.90
53282;DHT22;39167;52.794;6.892;2022-08-05T09:17:49;19.80;99.90
53282;DHT22;39167;52.794;6.892;2022-08-05T09:20:15;19.70;99.90
53282;DHT22;39167;52.794;6.892;2022-08-05T09:23:10;19.80;99.90
53282;DHT22;39167;52.794;6.892;2022-08-05T09:25:41;19.80;99.90
53282;DHT22;39167;52.794;6.892;2022-08-05T09:28:15;19.80;99.90
53282;DHT22;39167;52.794;6.892;2022-08-05T09:30:52;19.80;99.90
53282;DHT22;39167;52.794;6.892;2022-08-05T09:33:18;19.80;99.90
53282;DHT22;39167;52.794;6.892;2022-08-05T09:35:57;19.90;99.90
53282;DHT22;39167;52.794;6.892;2022-08-05T09:38:23;19.90;99.90
53282;DHT22;39167;52.794;6.892;2022-08-05T09:40:49;19.90;99.90
53282;DHT22;39167;52.794;6.892;2022-08-05T09:43:31;20.00;99.90
53282;DHT22;39167;52.794;6.892;2022-08-05T09:45:58;20.00;99.90
53282;DHT22;39167;52.794;6.892;2022-08-05T09:48:26;20.00;99.90
53282;DHT22;39167;52.794;6.892;2022-08-05T09:50:59;20.10;99.90
53282;DHT22;39167;52.794;6.892;2022-08-05T09:53:25;20.20;99.90
53282;DHT22;39167;52.794;6.892;2022-08-05T09:55:57;20.30;99.90
53282;DHT22;39167;52.794;6.892;2022-08-05T09:58:23;20.30;99.90
53282;DHT22;39167;52.794;6.892;2022-08-05T10:01:02;20.30;99.90
53282;DHT22;39167;52.794;6.892;2022-08-05T10:03:28;20.30;99.90
53282;DHT22;39167;52.794;6.892;2022-08-05T10:06:08;20.40;99.90
53282;DHT22;39167;52.794;6.892;2022-08-05T10:08:36;20.40;99.90
53282;DHT22;39167;52.794;6.892;2022-08-05T10:11:23;20.50;99.90
53282;DHT22;39167;52.794;6.892;2022-08-05T10:13:49;20.50;99.90
53282;DHT22;39167;52.794;6.892;2022-08-05T10:16:29;20.60;99.90
53282;DHT22;39167;52.794;6.892;2022-08-05T10:18:58;20.60;99.90
53282;DHT22;39167;52.794;6.892;2022-08-05T10:21:24;20.70;99.90
53282;DHT22;39167;52.794;6.892;2022-08-05T10:23:50;20.80;99.90
53282;DHT22;39167;52.794;6.892;2022-08-05T10:26:17;21.00;99.90
53282;DHT22;39167;52.794;6.892;2022-08-05T10:28:44;20.90;99.90
53282;DHT22;39167;52.794;6.892;2022-08-05T10:31:11;20.90;99.90
53282;DHT22;39167;52.794;6.892;2022-08-05T10:33:38;21.00;99.90
53282;DHT22;39167;52.794;6.892;2022-08-05T10:36:04;21.20;99.90
53282;DHT22;39167;52.794;6.892;2022-08-05T10:38:32;21.30;99.90
53282;DHT22;39167;52.794;6.892;2022-08-05T10:43:38;21.40;99.90
53282;DHT22;39167;52.794;6.892;2022-08-05T10:46:09;21.40;99.90
53282;DHT22;39167;52.794;6.892;2022-08-05T10:48:41;21.60;99.90
53282;DHT22;39167;52.794;6.892;2022-08-05T10:51:19;21.60;99.90
53282;DHT22;39167;52.794;6.892;2022-08-05T10:53:56;21.70;99.90
53282;DHT22;39167;52.794;6.892;2022-08-05T10:56:29;21.70;99.90
53282;DHT22;39167;52.794;6.892;2022-08-05T10:59:04;21.80;99.90
53282;DHT22;39167;52.794;6.892;2022-08-05T11:01:32;21.80;99.90
53282;DHT22;39167;52.794;6.892;2022-08-05T11:04:05;21.90;99.90
53282;DHT22;39167;52.794;6.892;2022-08-05T11:06:33;21.90;99.90
53282;DHT22;39167;52.794;6.892;2022-08-05T11:11:44;21.80;99.90
53282;DHT22;39167;52.794;6.892;2022-08-05T11:14:11;21.70;99.90
53282;DHT22;39167;52.794;6.892;2022-08-05T11:16:37;21.70;99.90
53282;DHT22;39167;52.794;6.892;2022-08-05T11:21:52;21.80;99.90
53282;DHT22;39167;52.794;6.892;2022-08-05T11:24:18;21.80;99.90
53282;DHT22;39167;52.794;6.892;2022-08-05T11:26:46;21.80;99.90
53282;DHT22;39167;52.794;6.892;2022-08-05T11:29:38;21.80;99.90
53282;DHT22;39167;52.794;6.892;2022-08-05T11:32:27;21.90;99.90
53282;DHT22;39167;52.794;6.892;2022-08-05T11:34:54;21.90;99.90
53282;DHT22;39167;52.794;6.892;2022-08-05T11:40:19;22.00;99.90
53282;DHT22;39167;52.794;6.892;2022-08-05T11:42:45;21.90;99.90
53282;DHT22;39167;52.794;6.892;2022-08-05T11:45:11;21.90;99.90
53282;DHT22;39167;52.794;6.892;2022-08-05T11:47:37;21.90;99.90
53282;DHT22;39167;52.794;6.892;2022-08-05T11:50:04;21.90;99.50
53282;DHT22;39167;52.794;6.892;2022-08-05T11:52:30;21.90;99.50
53282;DHT22;39167;52.794;6.892;2022-08-05T11:54:56;21.90;99.70
53282;DHT22;39167;52.794;6.892;2022-08-05T11:57:30;22.00;99.40
53282;DHT22;39167;52.794;6.892;2022-08-05T11:59:56;22.10;98.60
53282;DHT22;39167;52.794;6.892;2022-08-05T12:02:28;22.10;98.80
53282;DHT22;39167;52.794;6.892;2022-08-05T12:04:56;22.10;97.70
53282;DHT22;39167;52.794;6.892;2022-08-05T12:07:23;22.10;98.00
53282;DHT22;39167;52.794;6.892;2022-08-05T12:09:53;22.10;97.90
53282;DHT22;39167;52.794;6.892;2022-08-05T12:12:21;22.20;97.20
53282;DHT22;39167;52.794;6.892;2022-08-05T12:14:47;22.30;97.00
53282;DHT22;39167;52.794;6.892;2022-08-05T12:17:14;22.30;96.60
53282;DHT22;39167;52.794;6.892;2022-08-05T12:19:50;22.20;96.80
53282;DHT22;39167;52.794;6.892;2022-08-05T12:22:19;22.20;96.70
53282;DHT22;39167;52.794;6.892;2022-08-05T12:24:49;22.20;96.80
53282;DHT22;39167;52.794;6.892;2022-08-05T12:27:24;22.20;96.80
53282;DHT22;39167;52.794;6.892;2022-08-05T12:32:31;22.20;96.60
53282;DHT22;39167;52.794;6.892;2022-08-05T12:34:57;22.10;96.40
53282;DHT22;39167;52.794;6.892;2022-08-05T12:37:23;22.10;96.90
53282;DHT22;39167;52.794;6.892;2022-08-05T12:39:50;22.10;97.00
53282;DHT22;39167;52.794;6.892;2022-08-05T12:42:20;22.20;96.90
53282;DHT22;39167;52.794;6.892;2022-08-05T12:44:46;22.10;97.00
53282;DHT22;39167;52.794;6.892;2022-08-05T12:47:12;22.20;97.10
53282;DHT22;39167;52.794;6.892;2022-08-05T12:49:44;22.20;97.00
53282;DHT22;39167;52.794;6.892;2022-08-05T12:52:14;22.30;97.50
53282;DHT22;39167;52.794;6.892;2022-08-05T12:54:41;22.30;97.60
53282;DHT22;39167;52.794;6.892;2022-08-05T12:57:08;22.20;97.90
53282;DHT22;39167;52.794;6.892;2022-08-05T12:59:52;22.20;98.10
53282;DHT22;39167;52.794;6.892;2022-08-05T13:02:24;22.10;98.40
53282;DHT22;39167;52.794;6.892;2022-08-05T13:04:51;22.10;98.80
53282;DHT22;39167;52.794;6.892;2022-08-05T13:07:23;22.00;98.60
53282;DHT22;39167;52.794;6.892;2022-08-05T13:09:56;21.90;98.30
53282;DHT22;39167;52.794;6.892;2022-08-05T13:12:25;21.90;98.30
53282;DHT22;39167;52.794;6.892;2022-08-05T13:14:55;21.80;98.30
53282;DHT22;39167;52.794;6.892;2022-08-05T13:17:24;21.80;97.90
53282;DHT22;39167;52.794;6.892;2022-08-05T13:22:26;21.90;98.20
53282;DHT22;39167;52.794;6.892;2022-08-05T13:24:52;22.00;98.90
53282;DHT22;39167;52.794;6.892;2022-08-05T13:29:58;21.80;99.70
53282;DHT22;39167;52.794;6.892;2022-08-05T13:32:24;21.80;99.90
53282;DHT22;39167;52.794;6.892;2022-08-05T13:34:50;21.70;99.90
53282;DHT22;39167;52.794;6.892;2022-08-05T13:37:20;21.70;99.90
53282;DHT22;39167;52.794;6.892;2022-08-05T13:39:47;21.60;99.90
53282;DHT22;39167;52.794;6.892;2022-08-05T13:42:13;21.60;99.70
53282;DHT22;39167;52.794;6.892;2022-08-05T13:44:39;21.50;99.20
53282;DHT22;39167;52.794;6.892;2022-08-05T13:47:04;21.50;99.20
53282;DHT22;39167;52.794;6.892;2022-08-05T13:49:30;21.40;99.10
53282;DHT22;39167;52.794;6.892;2022-08-05T13:51:56;21.40;99.20
53282;DHT22;39167;52.794;6.892;2022-08-05T13:54:22;21.40;99.40
53282;DHT22;39167;52.794;6.892;2022-08-05T13:56:51;21.40;99.20
53282;DHT22;39167;52.794;6.892;2022-08-05T13:59:23;21.30;98.60
53282;DHT22;39167;52.794;6.892;2022-08-05T14:01:48;21.30;98.60
53282;DHT22;39167;52.794;6.892;2022-08-05T14:04:15;21.30;99.00
53282;DHT22;39167;52.794;6.892;2022-08-05T14:06:59;21.60;98.50
53282;DHT22;39167;52.794;6.892;2022-08-05T14:09:24;21.20;98.50
53282;DHT22;39167;52.794;6.892;2022-08-05T14:11:50;21.20;98.60
53282;DHT22;39167;52.794;6.892;2022-08-05T14:14:16;21.20;98.70
53282;DHT22;39167;52.794;6.892;2022-08-05T14:16:41;21.20;98.60
53282;DHT22;39167;52.794;6.892;2022-08-05T14:19:07;21.10;98.80
53282;DHT22;39167;52.794;6.892;2022-08-05T14:21:33;21.20;98.80
53282;DHT22;39167;52.794;6.892;2022-08-05T14:23:58;21.20;99.00
53282;DHT22;39167;52.794;6.892;2022-08-05T14:26:24;21.10;98.60
53282;DHT22;39167;52.794;6.892;2022-08-05T14:28:49;21.00;98.60
53282;DHT22;39167;52.794;6.892;2022-08-05T14:31:15;21.00;98.70
53282;DHT22;39167;52.794;6.892;2022-08-05T14:33:41;20.90;98.70
53282;DHT22;39167;52.794;6.892;2022-08-05T14:36:07;20.80;98.90
53282;DHT22;39167;52.794;6.892;2022-08-05T14:38:33;20.80;99.20
53282;DHT22;39167;52.794;6.892;2022-08-05T14:40:59;20.70;99.20
53282;DHT22;39167;52.794;6.892;2022-08-05T14:43:25;20.80;99.30
53282;DHT22;39167;52.794;6.892;2022-08-05T14:45:51;20.70;99.00
53282;DHT22;39167;52.794;6.892;2022-08-05T14:48:17;20.80;99.10
53282;DHT22;39167;52.794;6.892;2022-08-05T14:50:43;20.80;99.00
53282;DHT22;39167;52.794;6.892;2022-08-05T14:53:08;20.80;99.00
53282;DHT22;39167;52.794;6.892;2022-08-05T14:55:34;20.70;99.00
53282;DHT22;39167;52.794;6.892;2022-08-05T14:58:00;20.80;99.60
53282;DHT22;39167;52.794;6.892;2022-08-05T15:00:26;20.80;99.60
53282;DHT22;39167;52.794;6.892;2022-08-05T15:02:52;20.80;99.70
53282;DHT22;39167;52.794;6.892;2022-08-05T15:05:17;20.80;99.20
53282;DHT22;39167;52.794;6.892;2022-08-05T15:07:43;20.90;99.00
53282;DHT22;39167;52.794;6.892;2022-08-05T15:10:09;20.90;99.00
53282;DHT22;39167;52.794;6.892;2022-08-05T15:12:34;20.90;99.20
53282;DHT22;39167;52.794;6.892;2022-08-05T15:15:00;20.90;99.50
53282;DHT22;39167;52.794;6.892;2022-08-05T15:17:26;21.00;99.80
53282;DHT22;39167;52.794;6.892;2022-08-05T15:19:52;21.00;99.70
53282;DHT22;39167;52.794;6.892;2022-08-05T15:22:17;20.90;99.90
53282;DHT22;39167;52.794;6.892;2022-08-05T15:24:43;20.90;99.90
53282;DHT22;39167;52.794;6.892;2022-08-05T15:27:09;21.00;99.90
53282;DHT22;39167;52.794;6.892;2022-08-05T15:29:35;21.00;99.90
53282;DHT22;39167;52.794;6.892;2022-08-05T15:32:01;21.10;99.90
53282;DHT22;39167;52.794;6.892;2022-08-05T15:34:26;21.10;99.90
53282;DHT22;39167;52.794;6.892;2022-08-05T15:36:52;21.10;99.90
53282;DHT22;39167;52.794;6.892;2022-08-05T15:39:18;21.20;99.90
53282;DHT22;39167;52.794;6.892;2022-08-05T15:41:44;21.20;99.90
53282;DHT22;39167;52.794;6.892;2022-08-05T15:44:10;21.20;99.90
53282;DHT22;39167;52.794;6.892;2022-08-05T15:46:36;21.20;99.90
53282;DHT22;39167;52.794;6.892;2022-08-05T15:49:02;21.20;99.90
53282;DHT22;39167;52.794;6.892;2022-08-05T15:51:29;21.30;99.90
53282;DHT22;39167;52.794;6.892;2022-08-05T15:53:55;21.40;99.80
53282;DHT22;39167;52.794;6.892;2022-08-05T15:56:21;21.40;99.40